createdAt,value
2023-01-13T00:01:29.009Z,0.30
2023-01-13T00:03:57.729Z,0.33
2023-01-13T00:06:26.153Z,0.40
2023-01-13T00:08:54.140Z,0.30
2023-01-13T00:11:22.631Z,0.20
2023-01-13T00:13:49.718Z,0.30
2023-01-13T00:16:18.979Z,0.50
2023-01-13T00:18:46.973Z,0.13
2023-01-13T00:21:23.855Z,0.33
2023-01-13T00:23:54.680Z,0.30
2023-01-13T00:26:33.419Z,0.20
2023-01-13T00:29:00.743Z,0.23
2023-01-13T00:31:30.111Z,0.27
2023-01-13T00:34:00.558Z,0.30
2023-01-13T00:36:28.819Z,0.40
2023-01-13T00:38:59.880Z,0.20
2023-01-13T00:41:28.066Z,0.30
2023-01-13T00:43:55.246Z,0.43
2023-01-13T00:46:23.127Z,0.20
2023-01-13T00:48:51.470Z,0.30
2023-01-13T00:51:21.790Z,0.30
2023-01-13T00:53:52.308Z,0.20
2023-01-13T00:56:39.086Z,0.53
2023-01-13T00:59:10.289Z,0.30
2023-01-13T01:01:37.528Z,0.30
2023-01-13T01:04:04.896Z,0.20
2023-01-13T01:06:32.073Z,0.30
2023-01-13T01:09:01.959Z,0.20
2023-01-13T01:11:33.270Z,0.20
2023-01-13T01:14:03.326Z,0.10
2023-01-13T01:16:32.757Z,0.30
2023-01-13T01:19:01.162Z,0.20
2023-01-13T01:21:29.368Z,0.20
2023-01-13T01:24:00.732Z,0.20
2023-01-13T01:26:29.978Z,0.30
2023-01-13T01:28:57.633Z,0.30
2023-01-13T01:31:31.513Z,0.27
2023-01-13T01:34:02.533Z,0.10
2023-01-13T01:36:30.315Z,0.13
2023-01-13T01:38:59.574Z,0.10
2023-01-13T01:41:31.920Z,0.10
2023-01-13T01:44:22.863Z,0.13
2023-01-13T01:46:49.966Z,0.20
2023-01-13T01:49:35.437Z,0.10
2023-01-13T01:52:19.981Z,0.30
2023-01-13T01:55:19.876Z,0.20
2023-01-13T01:58:11.176Z,0.27
2023-01-13T02:00:38.798Z,0.20
2023-01-13T02:03:10.925Z,0.10
2023-01-13T02:05:38.961Z,0.17
2023-01-13T02:08:07.541Z,0.20
2023-01-13T02:10:35.280Z,0.10
2023-01-13T02:13:11.719Z,0.20
2023-01-13T02:16:08.966Z,0.40
2023-01-13T02:19:06.260Z,0.20
2023-01-13T02:21:51.043Z,0.53
2023-01-13T02:24:54.630Z,0.30
2023-01-13T02:27:53.099Z,0.13
2023-01-13T02:31:10.371Z,0.20
2023-01-13T02:34:44.352Z,0.20
2023-01-13T02:37:25.556Z,0.20
2023-01-13T02:40:22.475Z,0.10
2023-01-13T02:43:40.594Z,0.10
2023-01-13T02:46:32.966Z,0.20
2023-01-13T02:49:08.849Z,0.20
2023-01-13T02:51:39.566Z,0.20
2023-01-13T02:54:25.641Z,0.10
2023-01-13T02:56:58.430Z,0.20
2023-01-13T02:59:27.835Z,0.10
2023-01-13T03:01:58.089Z,0.10
2023-01-13T03:05:00.462Z,0.10
2023-01-13T03:08:18.885Z,0.20
2023-01-13T03:11:17.608Z,0.10
2023-01-13T03:14:18.023Z,0.10
2023-01-13T03:17:45.187Z,0.20
2023-01-13T03:20:29.360Z,0.10
2023-01-13T03:23:22.081Z,0.20
2023-01-13T03:26:39.968Z,0.00
2023-01-13T03:29:40.314Z,0.10
2023-01-13T03:32:48.517Z,0.10
2023-01-13T03:35:31.187Z,0.10
2023-01-13T03:38:15.685Z,0.10
2023-01-13T03:41:00.069Z,0.20
2023-01-13T03:44:00.728Z,0.17
2023-01-13T03:46:52.400Z,0.20
2023-01-13T03:49:29.342Z,0.10
2023-01-13T03:52:05.982Z,0.10
2023-01-13T03:54:44.820Z,0.10
2023-01-13T03:57:17.907Z,0.00
2023-01-13T03:59:52.838Z,0.07
2023-01-13T04:02:56.036Z,0.30
2023-01-13T04:05:24.653Z,0.10
2023-01-13T04:08:20.908Z,0.10
2023-01-13T04:11:10.134Z,0.20
2023-01-13T04:13:42.078Z,0.10
2023-01-13T04:16:11.286Z,0.20
2023-01-13T04:18:40.121Z,0.10
2023-01-13T04:21:09.356Z,0.10
2023-01-13T04:23:42.246Z,0.10
2023-01-13T04:26:09.303Z,0.27
2023-01-13T04:28:36.409Z,0.20
2023-01-13T04:31:03.856Z,0.00
2023-01-13T04:33:34.709Z,0.20
2023-01-13T04:36:01.765Z,0.10
2023-01-13T04:38:28.769Z,0.17
2023-01-13T04:40:55.850Z,0.00
2023-01-13T04:43:22.883Z,0.10
2023-01-13T04:45:49.889Z,0.03
2023-01-13T04:48:16.989Z,0.10
2023-01-13T04:50:45.057Z,0.10
2023-01-13T04:53:12.218Z,0.00
2023-01-13T04:55:39.350Z,0.20
2023-01-13T04:58:10.027Z,0.10
2023-01-13T05:00:38.454Z,0.10
2023-01-13T05:03:05.680Z,0.10
2023-01-13T05:05:35.648Z,0.10
2023-01-13T05:08:03.186Z,0.10
2023-01-13T05:10:30.488Z,0.20
2023-01-13T05:13:16.500Z,0.20
2023-01-13T05:16:02.708Z,0.10
2023-01-13T05:18:31.401Z,0.10
2023-01-13T05:20:58.579Z,0.20
2023-01-13T05:23:44.651Z,0.10
2023-01-13T05:26:14.899Z,0.10
2023-01-13T05:28:41.876Z,0.20
2023-01-13T05:31:08.991Z,0.33
2023-01-13T05:33:36.334Z,0.10
2023-01-13T05:36:04.234Z,0.10
2023-01-13T05:38:31.338Z,0.37
2023-01-13T05:41:18.794Z,0.17
2023-01-13T05:43:45.968Z,0.27
2023-01-13T05:46:17.878Z,0.10
2023-01-13T05:48:45.512Z,0.20
2023-01-13T05:51:13.731Z,0.30
2023-01-13T05:53:41.089Z,0.30
2023-01-13T05:56:09.764Z,0.50
2023-01-13T05:58:37.771Z,0.43
2023-01-13T06:01:09.143Z,0.50
2023-01-13T06:03:37.187Z,0.57
2023-01-13T06:06:08.986Z,0.50
2023-01-13T06:08:38.677Z,0.60
2023-01-13T06:11:07.091Z,0.40
2023-01-13T06:13:34.292Z,0.70
2023-01-13T06:16:01.572Z,0.77
2023-01-13T06:18:29.153Z,1.20
2023-01-13T06:20:56.869Z,0.60
2023-01-13T06:23:24.191Z,0.90
2023-01-13T06:26:19.051Z,0.97
2023-01-13T06:28:46.174Z,1.00
2023-01-13T06:31:14.070Z,0.83
2023-01-13T06:33:50.955Z,1.10
2023-01-13T06:36:25.187Z,0.73
2023-01-13T06:38:58.886Z,0.80
2023-01-13T06:41:47.291Z,0.70
2023-01-13T06:44:14.475Z,0.60
2023-01-13T06:46:41.613Z,0.90
2023-01-13T06:49:08.713Z,0.77
2023-01-13T06:51:36.052Z,1.10
2023-01-13T06:54:03.655Z,1.30
2023-01-13T06:56:30.696Z,1.40
2023-01-13T06:58:57.826Z,1.20
2023-01-13T07:01:25.081Z,1.73
2023-01-13T07:03:52.329Z,1.03
2023-01-13T07:06:19.721Z,1.27
2023-01-13T07:08:46.716Z,2.60
2023-01-13T07:11:13.811Z,2.60
2023-01-13T07:13:59.466Z,1.70
2023-01-13T07:16:28.364Z,1.83
2023-01-13T07:18:55.437Z,1.30
2023-01-13T07:21:22.444Z,1.23
2023-01-13T07:23:49.711Z,1.10
2023-01-13T07:26:17.513Z,1.40
2023-01-13T07:28:49.468Z,1.00
2023-01-13T07:31:22.902Z,1.00
2023-01-13T07:33:50.354Z,0.70
2023-01-13T07:36:17.460Z,0.97
2023-01-13T07:38:47.473Z,0.80
2023-01-13T07:41:34.137Z,0.77
2023-01-13T07:44:04.929Z,0.40
2023-01-13T07:46:33.703Z,0.40
2023-01-13T07:49:00.828Z,0.50
2023-01-13T07:51:27.893Z,0.40
2023-01-13T07:53:54.933Z,0.20
2023-01-13T07:56:22.380Z,0.33
2023-01-13T07:58:51.162Z,0.30
2023-01-13T08:01:20.858Z,0.20
2023-01-13T08:03:48.221Z,0.50
2023-01-13T08:06:15.727Z,0.50
2023-01-13T08:08:42.803Z,0.20
2023-01-13T08:11:09.945Z,0.40
2023-01-13T08:13:37.540Z,0.40
2023-01-13T08:16:10.292Z,0.50
2023-01-13T08:18:38.919Z,0.13
2023-01-13T08:21:15.777Z,0.40
2023-01-13T08:23:45.216Z,0.23
2023-01-13T08:26:17.500Z,0.40
2023-01-13T08:28:45.824Z,0.27
2023-01-13T08:31:17.113Z,0.33
2023-01-13T08:33:46.978Z,0.40
2023-01-13T08:36:18.339Z,0.40
2023-01-13T08:38:45.422Z,0.40
2023-01-13T08:41:36.529Z,0.43
2023-01-13T08:44:05.192Z,0.20
2023-01-13T08:46:32.304Z,0.20
2023-01-13T08:48:59.418Z,0.30
2023-01-13T08:51:27.231Z,0.23
2023-01-13T08:53:54.286Z,0.10
2023-01-13T08:56:21.316Z,0.37
2023-01-13T08:58:48.293Z,0.30
2023-01-13T09:01:22.332Z,0.30
2023-01-13T09:03:49.576Z,0.20
2023-01-13T09:06:16.749Z,0.20
2023-01-13T09:08:44.707Z,0.30
2023-01-13T09:11:53.954Z,0.40
2023-01-13T09:14:27.176Z,0.20
2023-01-13T09:16:54.211Z,0.20
2023-01-13T09:19:21.218Z,0.30
2023-01-13T09:21:48.486Z,0.30
2023-01-13T09:24:15.656Z,0.20
2023-01-13T09:26:44.433Z,0.20
2023-01-13T09:29:14.354Z,0.20
2023-01-13T09:31:44.217Z,0.37
2023-01-13T09:34:36.567Z,0.23
2023-01-13T09:37:08.213Z,0.27
2023-01-13T09:39:36.957Z,0.30
2023-01-13T09:43:00.128Z,0.50
2023-01-13T09:45:48.285Z,0.30
2023-01-13T09:48:52.022Z,0.30
2023-01-13T09:51:46.202Z,0.20
2023-01-13T09:55:11.675Z,0.30
2023-01-13T09:57:39.977Z,0.40
2023-01-13T10:00:34.923Z,0.30
2023-01-13T10:03:19.587Z,0.40
2023-01-13T10:06:42.119Z,0.20
2023-01-13T10:09:31.197Z,0.70
2023-01-13T10:12:20.254Z,0.33
2023-01-13T10:14:56.065Z,0.57
2023-01-13T10:17:45.136Z,0.37
2023-01-13T10:21:08.500Z,0.30
2023-01-13T10:24:12.353Z,0.40
2023-01-13T10:27:07.783Z,0.30
2023-01-13T10:29:36.988Z,0.30
2023-01-13T10:32:04.460Z,0.40
2023-01-13T10:34:31.675Z,0.30
2023-01-13T10:37:09.414Z,0.40
2023-01-13T10:39:48.410Z,0.37
2023-01-13T10:42:21.642Z,0.30
2023-01-13T10:44:59.911Z,0.40
2023-01-13T10:47:30.825Z,0.30
2023-01-13T10:50:13.315Z,0.20
2023-01-13T10:53:16.215Z,0.40
2023-01-13T10:56:03.206Z,0.30
2023-01-13T10:58:30.335Z,0.40
2023-01-13T11:01:07.138Z,0.23
2023-01-13T11:03:43.113Z,0.40
2023-01-13T11:06:21.280Z,0.20
2023-01-13T11:08:52.398Z,0.47
2023-01-13T11:11:42.788Z,0.20
2023-01-13T11:14:41.866Z,0.27
2023-01-13T11:17:48.855Z,0.30
2023-01-13T11:20:32.373Z,0.27
2023-01-13T11:23:12.174Z,0.37
2023-01-13T11:25:47.016Z,0.87
2023-01-13T11:28:46.114Z,0.30
2023-01-13T11:31:43.716Z,0.33
2023-01-13T11:34:39.561Z,0.40
2023-01-13T11:37:31.071Z,0.37
2023-01-13T11:40:07.051Z,0.50
2023-01-13T11:43:34.548Z,0.20
2023-01-13T11:46:02.112Z,0.43
2023-01-13T11:48:36.140Z,0.80
2023-01-13T11:51:34.422Z,0.47
2023-01-13T11:54:47.075Z,0.43
2023-01-13T11:57:44.948Z,0.43
2023-01-13T12:00:31.431Z,0.30
2023-01-13T12:03:17.121Z,0.40
2023-01-13T12:06:10.424Z,0.43
2023-01-13T12:09:11.739Z,0.50
2023-01-13T12:12:23.947Z,0.30
2023-01-13T12:15:24.914Z,0.30
2023-01-13T12:19:07.502Z,0.40
2023-01-13T12:21:56.274Z,0.30
2023-01-13T12:24:30.059Z,0.60
2023-01-13T12:27:12.633Z,0.40
2023-01-13T12:29:40.356Z,0.30
2023-01-13T12:32:20.977Z,0.50
2023-01-13T12:35:16.446Z,0.20
2023-01-13T12:38:18.971Z,1.30
2023-01-13T12:41:22.019Z,1.20
2023-01-13T12:44:10.128Z,0.90
2023-01-13T12:46:57.297Z,0.93
2023-01-13T12:49:31.060Z,1.20
2023-01-13T12:51:57.881Z,1.27
2023-01-13T12:54:30.900Z,0.70
2023-01-13T12:56:59.120Z,0.80
2023-01-13T12:59:25.923Z,0.60
2023-01-13T13:02:13.238Z,0.90
2023-01-13T13:04:54.026Z,0.70
2023-01-13T13:08:14.647Z,0.60
2023-01-13T13:11:33.313Z,0.70
2023-01-13T13:14:15.859Z,0.57
2023-01-13T13:16:52.881Z,0.80
2023-01-13T13:19:22.762Z,0.73
2023-01-13T13:22:16.895Z,0.40
2023-01-13T13:25:04.830Z,4.33
2023-01-13T13:28:19.308Z,1.10
2023-01-13T13:31:47.139Z,2.50
2023-01-13T13:35:11.319Z,1.00
2023-01-13T13:38:56.720Z,0.87
2023-01-13T13:41:44.823Z,1.00
2023-01-13T13:44:38.457Z,0.50
2023-01-13T13:47:07.561Z,0.70
2023-01-13T13:49:44.078Z,0.80
2023-01-13T13:52:43.071Z,0.80
2023-01-13T13:55:23.539Z,1.33
2023-01-13T13:57:54.675Z,0.47
2023-01-13T14:00:25.181Z,0.50
2023-01-13T14:03:01.569Z,0.60
2023-01-13T14:05:35.119Z,0.27
2023-01-13T14:08:23.704Z,0.60
2023-01-13T14:10:51.479Z,0.50
2023-01-13T14:13:30.521Z,0.40
2023-01-13T14:16:10.698Z,0.60
2023-01-13T14:18:48.472Z,0.70
2023-01-13T14:21:29.772Z,0.47
2023-01-13T14:24:16.478Z,0.30
2023-01-13T14:26:43.654Z,0.70
2023-01-13T14:29:18.428Z,0.40
2023-01-13T14:31:47.074Z,0.60
2023-01-13T14:34:31.346Z,0.60
2023-01-13T14:36:59.539Z,0.80
2023-01-13T14:39:41.651Z,0.57
2023-01-13T14:42:17.292Z,0.63
2023-01-13T14:44:49.632Z,0.53
2023-01-13T14:47:22.948Z,0.50
2023-01-13T14:50:16.367Z,0.50
2023-01-13T14:53:00.847Z,0.40
2023-01-13T14:55:41.302Z,0.40
2023-01-13T14:58:38.019Z,0.77
2023-01-13T15:01:44.372Z,0.60
2023-01-13T15:04:33.239Z,0.60
2023-01-13T15:07:01.251Z,0.60
2023-01-13T15:09:41.460Z,1.00
2023-01-13T15:12:35.793Z,0.90
2023-01-13T15:15:25.878Z,6.33
2023-01-13T15:17:53.551Z,5.40
2023-01-13T15:20:24.016Z,2.23
2023-01-13T15:22:55.207Z,4.10
2023-01-13T15:25:22.480Z,3.30
2023-01-13T15:27:52.742Z,5.33
2023-01-13T15:30:27.181Z,2.00
2023-01-13T15:32:59.500Z,1.13
2023-01-13T15:35:29.107Z,4.83
2023-01-13T15:37:57.664Z,4.30
2023-01-13T15:40:32.793Z,2.27
2023-01-13T15:43:18.831Z,1.83
2023-01-13T15:46:05.599Z,0.70
2023-01-13T15:48:32.984Z,0.40
2023-01-13T15:51:04.800Z,0.70
2023-01-13T15:53:36.954Z,0.87
2023-01-13T15:56:15.482Z,0.67
2023-01-13T15:58:44.540Z,0.50
2023-01-13T16:01:13.148Z,0.90
2023-01-13T16:03:40.263Z,0.73
2023-01-13T16:06:29.349Z,1.00
2023-01-13T16:08:56.420Z,0.63
2023-01-13T16:11:23.551Z,0.90
2023-01-13T16:13:50.546Z,0.97
2023-01-13T16:16:27.922Z,0.90
2023-01-13T16:18:55.933Z,0.80
2023-01-13T16:21:23.904Z,0.50
2023-01-13T16:23:51.785Z,1.20
2023-01-13T16:26:29.252Z,1.40
2023-01-13T16:28:58.542Z,2.03
2023-01-13T16:31:33.479Z,0.77
2023-01-13T16:34:03.345Z,1.30
2023-01-13T16:36:36.838Z,0.50
2023-01-13T16:39:19.184Z,0.53
2023-01-13T16:41:46.836Z,1.23
2023-01-13T16:44:13.951Z,0.60
2023-01-13T16:46:43.309Z,1.10
2023-01-13T16:49:15.769Z,0.90
2023-01-13T16:51:42.955Z,1.03
2023-01-13T16:54:10.023Z,0.60
2023-01-13T16:56:38.132Z,1.00
2023-01-13T16:59:14.319Z,0.90
2023-01-13T17:01:44.826Z,0.77
2023-01-13T17:04:22.150Z,0.73
2023-01-13T17:07:03.233Z,0.50
2023-01-13T17:09:31.020Z,0.67
2023-01-13T17:11:58.809Z,0.80
2023-01-13T17:14:26.521Z,0.60
2023-01-13T17:16:59.665Z,0.93
2023-01-13T17:19:26.973Z,0.80
2023-01-13T17:21:54.119Z,0.40
2023-01-13T17:24:25.746Z,0.70
2023-01-13T17:26:52.839Z,0.63
2023-01-13T17:29:27.039Z,0.90
2023-01-13T17:31:54.341Z,0.60
2023-01-13T17:34:21.725Z,0.80
2023-01-13T17:36:49.105Z,0.83
2023-01-13T17:39:20.511Z,0.50
2023-01-13T17:41:48.259Z,0.53
2023-01-13T17:44:18.703Z,0.33
2023-01-13T17:46:46.602Z,0.40
2023-01-13T17:49:16.784Z,0.60
2023-01-13T17:51:47.995Z,0.30
2023-01-13T17:54:17.082Z,0.70
2023-01-13T17:56:44.321Z,0.70
2023-01-13T17:59:20.591Z,0.43
2023-01-13T18:01:51.268Z,0.33
2023-01-13T18:04:23.515Z,0.80
2023-01-13T18:06:54.299Z,0.67
2023-01-13T18:09:22.763Z,0.93
2023-01-13T18:11:50.571Z,0.60
2023-01-13T18:14:17.882Z,1.03
2023-01-13T18:16:45.022Z,0.97
2023-01-13T18:19:30.902Z,0.77
2023-01-13T18:22:16.456Z,0.50
2023-01-13T18:25:02.059Z,0.73
2023-01-13T18:27:35.245Z,0.80
2023-01-13T18:30:04.558Z,0.70
2023-01-13T18:32:33.891Z,1.07
2023-01-13T18:35:06.462Z,0.70
2023-01-13T18:37:35.989Z,0.90
2023-01-13T18:40:05.398Z,0.40
2023-01-13T18:42:51.212Z,0.50
2023-01-13T18:45:27.209Z,0.57
2023-01-13T18:47:58.356Z,0.40
2023-01-13T18:50:26.276Z,1.07
2023-01-13T18:52:53.753Z,0.50
2023-01-13T18:55:21.223Z,1.00
2023-01-13T18:57:48.800Z,0.40
2023-01-13T19:00:20.321Z,0.60
2023-01-13T19:02:50.537Z,0.40
2023-01-13T19:05:17.847Z,0.40
2023-01-13T19:07:50.431Z,0.60
2023-01-13T19:10:18.526Z,0.47
2023-01-13T19:12:45.601Z,0.40
2023-01-13T19:15:12.881Z,0.67
2023-01-13T19:17:40.111Z,1.23
2023-01-13T19:20:11.414Z,1.00
2023-01-13T19:22:38.829Z,0.73
2023-01-13T19:25:06.372Z,1.27
2023-01-13T19:27:33.551Z,0.73
2023-01-13T19:30:01.742Z,0.80
2023-01-13T19:32:32.171Z,0.83
2023-01-13T19:34:59.619Z,0.90
2023-01-13T19:37:31.458Z,0.40
2023-01-13T19:39:59.824Z,0.70
2023-01-13T19:42:46.625Z,0.97
2023-01-13T19:45:26.455Z,0.90
2023-01-13T19:47:55.193Z,0.47
2023-01-13T19:50:22.371Z,0.77
2023-01-13T19:52:49.405Z,1.07
2023-01-13T19:55:16.897Z,1.20
2023-01-13T19:57:43.889Z,1.47
2023-01-13T20:00:15.040Z,1.57
2023-01-13T20:02:47.920Z,1.27
2023-01-13T20:05:25.540Z,1.00
2023-01-13T20:07:53.940Z,0.73
2023-01-13T20:10:23.942Z,0.60
2023-01-13T20:12:51.177Z,0.70
2023-01-13T20:15:18.359Z,0.60
2023-01-13T20:17:45.457Z,0.57
2023-01-13T20:20:14.930Z,0.50
2023-01-13T20:22:42.355Z,0.80
2023-01-13T20:25:10.425Z,0.80
2023-01-13T20:27:38.284Z,0.60
2023-01-13T20:30:09.432Z,0.73
2023-01-13T20:32:37.251Z,0.97
2023-01-13T20:35:05.780Z,0.83
2023-01-13T20:37:37.646Z,1.10
2023-01-13T20:40:07.144Z,0.90
2023-01-13T20:42:54.569Z,0.60
2023-01-13T20:45:23.272Z,1.10
2023-01-13T20:47:50.347Z,0.40
2023-01-13T20:50:17.832Z,0.60
2023-01-13T20:52:45.628Z,0.77
2023-01-13T20:55:13.458Z,0.67
2023-01-13T20:57:41.669Z,0.90
2023-01-13T21:00:10.617Z,0.60
2023-01-13T21:02:43.877Z,0.70
2023-01-13T21:05:10.913Z,0.80
2023-01-13T21:07:37.942Z,0.90
2023-01-13T21:10:05.883Z,0.53
2023-01-13T21:12:52.918Z,0.57
2023-01-13T21:15:21.761Z,0.60
2023-01-13T21:18:10.185Z,0.70
2023-01-13T21:20:39.315Z,0.70
2023-01-13T21:23:07.942Z,0.50
2023-01-13T21:25:37.116Z,0.70
2023-01-13T21:28:08.239Z,0.60
2023-01-13T21:30:36.541Z,0.70
2023-01-13T21:33:04.941Z,0.80
2023-01-13T21:35:32.345Z,0.60
2023-01-13T21:37:59.710Z,0.67
2023-01-13T21:40:26.855Z,0.60
2023-01-13T21:43:12.510Z,0.67
2023-01-13T21:45:58.647Z,0.73
2023-01-13T21:48:25.690Z,0.50
2023-01-13T21:50:52.804Z,1.13
2023-01-13T21:53:19.908Z,0.77
2023-01-13T21:55:52.423Z,0.70
2023-01-13T21:58:19.445Z,0.70
2023-01-13T22:00:49.277Z,1.00
2023-01-13T22:03:18.578Z,0.70
2023-01-13T22:05:46.369Z,0.70
2023-01-13T22:08:14.139Z,0.57
2023-01-13T22:11:00.582Z,0.60
2023-01-13T22:13:47.907Z,0.70
2023-01-13T22:16:15.973Z,0.53
2023-01-13T22:18:43.181Z,0.73
2023-01-13T22:21:10.999Z,1.03
2023-01-13T22:23:38.119Z,0.50
2023-01-13T22:26:08.067Z,0.40
2023-01-13T22:28:40.749Z,0.50
2023-01-13T22:31:17.095Z,0.60
2023-01-13T22:33:48.082Z,0.60
2023-01-13T22:36:16.397Z,0.40
2023-01-13T22:38:43.967Z,0.60
2023-01-13T22:41:11.374Z,0.43
2023-01-13T22:43:38.991Z,0.33
2023-01-13T22:46:10.428Z,0.40
2023-01-13T22:48:39.056Z,0.50
2023-01-13T22:51:15.197Z,0.23
2023-01-13T22:53:42.817Z,0.57
2023-01-13T22:56:21.849Z,0.80
2023-01-13T22:58:55.162Z,0.47
2023-01-13T23:01:24.400Z,0.60
2023-01-13T23:03:52.231Z,0.90
2023-01-13T23:06:22.002Z,0.47
2023-01-13T23:08:49.294Z,0.63
2023-01-13T23:11:23.930Z,0.57
2023-01-13T23:13:56.166Z,0.87
2023-01-13T23:16:23.263Z,0.50
2023-01-13T23:18:50.431Z,0.60
2023-01-13T23:21:30.879Z,0.50
2023-01-13T23:23:58.901Z,0.43
2023-01-13T23:26:28.265Z,0.90
2023-01-13T23:29:05.384Z,0.50
2023-01-13T23:31:34.831Z,0.90
2023-01-13T23:34:01.906Z,0.90
2023-01-13T23:36:29.704Z,0.60
2023-01-13T23:38:59.378Z,0.70
2023-01-13T23:41:28.024Z,0.93
2023-01-13T23:44:00.294Z,0.90
2023-01-13T23:46:32.602Z,0.70
2023-01-13T23:49:00.887Z,1.03
2023-01-13T23:51:29.946Z,1.00
2023-01-13T23:53:59.037Z,0.80
2023-01-13T23:56:31.056Z,0.57
2023-01-13T23:58:58.609Z,0.70
